Time;durP1;ratioP1;P1;durP2;ratioP2;P2;SDS_P1;SDS_P2;PMS_P1;PMS_P2;Temp;Humidity;BMP_temperature;BMP_pressure;BME280_temperature;BME280_humidity;BME280_pressure;Samples;Min_cycle;Max_cycle;Signal;HPM_P1;HPM_P2
2022/03/09 00:02:30;;;;;;;2.13;1.42;;;18.90;44.30;;;;;;6196308;28;20114;-68
2022/03/09 00:05:30;;;;;;;2.15;1.40;;;18.90;44.40;;;;;;6196920;28;20065;-69
2022/03/09 00:08:31;;;;;;;2.58;1.35;;;18.90;44.40;;;;;;6196120;28;20069;-69
2022/03/09 00:11:31;;;;;;;2.28;1.50;;;18.90;44.40;;;;;;6196500;28;20482;-69
2022/03/09 00:14:32;;;;;;;1.90;1.35;;;18.90;44.40;;;;;;6196640;28;20033;-69
2022/03/09 00:17:33;;;;;;;1.88;1.42;;;18.90;44.40;;;;;;6196443;28;20057;-69
2022/03/09 00:20:33;;;;;;;2.70;1.70;;;18.90;44.30;;;;;;6196333;28;20500;-68
2022/03/09 00:23:34;;;;;;;2.80;1.38;;;18.90;44.50;;;;;;6196208;28;20038;-69
2022/03/09 00:26:35;;;;;;;2.63;1.55;;;18.90;44.50;;;;;;6195368;28;20057;-68
2022/03/09 00:29:35;;;;;;;2.97;1.60;;;18.90;44.40;;;;;;6194675;28;20089;-68
2022/03/09 00:32:39;;;;;;;3.00;2.00;;;18.90;44.40;;;;;;6195567;28;20117;-68
2022/03/09 00:35:42;;;;;;;1.42;1.05;;;18.90;44.40;;;;;;6195887;28;20529;-69
2022/03/09 00:38:43;;;;;;;3.03;1.58;;;18.90;44.50;;;;;;6195811;28;20181;-69
2022/03/09 00:41:43;;;;;;;2.42;1.58;;;18.90;44.40;;;;;;6195941;28;20533;-69
2022/03/09 00:44:44;;;;;;;2.05;1.42;;;18.90;44.50;;;;;;6195556;28;20104;-69
2022/03/09 00:47:44;;;;;;;2.72;1.80;;;18.90;44.50;;;;;;6195423;28;20169;-69
2022/03/09 00:50:45;;;;;;;2.38;1.70;;;18.90;44.50;;;;;;6195274;28;20058;-69
2022/03/09 00:53:45;;;;;;;4.15;2.15;;;18.90;44.50;;;;;;6195537;28;20243;-69
2022/03/09 00:56:46;;;;;;;2.67;1.73;;;18.90;44.50;;;;;;6195304;28;20118;-69
2022/03/09 00:59:47;;;;;;;4.70;1.80;;;18.90;44.60;;;;;;6195859;28;20034;-69
2022/03/09 01:02:47;;;;;;;2.17;1.63;;;18.90;44.60;;;;;;6195289;28;20613;-69
2022/03/09 01:05:48;;;;;;;2.33;1.65;;;18.90;44.60;;;;;;6195248;28;20409;-69
2022/03/09 01:08:48;;;;;;;2.63;1.90;;;18.90;44.60;;;;;;6195485;28;20121;-69
2022/03/09 01:11:49;;;;;;;2.22;1.58;;;18.90;44.60;;;;;;6195180;28;20043;-69
2022/03/09 01:14:49;;;;;;;3.53;1.90;;;18.90;44.60;;;;;;6195449;28;20030;-69
2022/03/09 01:17:50;;;;;;;3.33;1.83;;;18.90;44.60;;;;;;6195946;28;20030;-69
2022/03/09 01:20:50;;;;;;;1.90;1.35;;;18.90;44.60;;;;;;6194240;28;20069;-69
2022/03/09 01:23:51;;;;;;;3.08;2.13;;;18.90;44.60;;;;;;6195095;28;20581;-69
2022/03/09 01:26:51;;;;;;;2.47;1.75;;;18.90;44.60;;;;;;6194253;28;20054;-69
2022/03/09 01:29:52;;;;;;;3.50;1.73;;;18.90;44.60;;;;;;6194838;28;20097;-69
2022/03/09 01:32:52;;;;;;;2.65;1.65;;;18.90;44.60;;;;;;6193371;28;20082;-68
2022/03/09 01:35:53;;;;;;;3.10;1.92;;;18.90;44.60;;;;;;6194690;28;20040;-68
2022/03/09 01:38:53;;;;;;;3.67;1.95;;;18.90;44.60;;;;;;6195043;28;20392;-69
2022/03/09 01:41:55;;;;;;;3.38;2.13;;;18.90;44.60;;;;;;6194658;28;20033;-69
2022/03/09 01:45:04;;;;;;;3.22;2.08;;;18.90;44.60;;;;;;6194615;28;20037;-69
2022/03/09 01:48:05;;;;;;;2.50;2.05;;;18.90;44.60;;;;;;6194399;28;20109;-69
2022/03/09 01:51:05;;;;;;;4.38;2.13;;;18.90;44.60;;;;;;6194239;28;20045;-68
2022/03/09 01:54:06;;;;;;;3.17;2.00;;;18.90;44.60;;;;;;6194841;28;20117;-69
2022/03/09 01:57:07;;;;;;;3.60;2.17;;;18.90;44.60;;;;;;6194553;28;20153;-69
2022/03/09 02:00:08;;;;;;;3.05;2.08;;;18.90;44.70;;;;;;6194342;28;20023;-68
2022/03/09 02:03:09;;;;;;;3.05;1.70;;;18.90;44.60;;;;;;6194380;28;20019;-69
2022/03/09 02:06:10;;;;;;;3.65;2.35;;;18.90;44.60;;;;;;6194249;28;20026;-69
2022/03/09 02:12:30;;;;;;;2.67;1.98;;;18.90;44.60;;;;;;6194324;28;20039;-69
2022/03/09 02:15:30;;;;;;;3.88;2.42;;;18.90;44.60;;;;;;6194079;28;20037;-69
2022/03/09 02:18:31;;;;;;;3.45;2.15;;;18.90;44.70;;;;;;6194186;28;20263;-68
2022/03/09 02:21:33;;;;;;;3.08;2.03;;;18.90;44.60;;;;;;6194340;28;20038;-69
2022/03/09 02:24:34;;;;;;;3.30;2.10;;;18.90;44.70;;;;;;6193855;28;20054;-69
2022/03/09 02:27:35;;;;;;;3.35;1.80;;;18.90;44.70;;;;;;6194061;28;20041;-69
2022/03/09 02:30:35;;;;;;;2.90;2.05;;;18.90;44.60;;;;;;6195731;28;20034;-69
2022/03/09 02:33:36;;;;;;;3.28;1.98;;;18.90;44.70;;;;;;6198702;28;20494;-69
2022/03/09 02:36:36;;;;;;;3.03;1.70;;;18.90;44.60;;;;;;6198755;28;20469;-69
2022/03/09 02:39:37;;;;;;;3.47;2.20;;;18.90;44.70;;;;;;6198689;28;20029;-69
2022/03/09 02:42:38;;;;;;;3.03;2.10;;;18.90;44.70;;;;;;6198338;28;20030;-69
2022/03/09 02:45:39;;;;;;;2.63;1.88;;;18.90;44.70;;;;;;6198543;28;20038;-69
2022/03/09 02:48:39;;;;;;;2.83;2.00;;;18.90;44.70;;;;;;6198741;28;20034;-69
2022/03/09 02:51:40;;;;;;;2.92;2.10;;;18.90;44.70;;;;;;6197960;28;20073;-69
2022/03/09 02:54:41;;;;;;;4.93;2.20;;;18.90;44.60;;;;;;6198510;28;20030;-69
2022/03/09 02:57:42;;;;;;;4.43;2.20;;;18.90;44.70;;;;;;6198048;28;20041;-69
2022/03/09 03:00:42;;;;;;;3.08;1.98;;;18.90;44.70;;;;;;6198719;28;20030;-69
2022/03/09 03:03:44;;;;;;;3.55;2.53;;;18.90;44.70;;;;;;6198390;28;20018;-69
2022/03/09 03:06:44;;;;;;;4.13;2.80;;;18.90;44.70;;;;;;6198229;28;20034;-69
2022/03/09 03:09:45;;;;;;;4.03;2.65;;;18.90;44.70;;;;;;6199866;28;20037;-69
2022/03/09 03:12:45;;;;;;;6.63;2.63;;;18.90;44.80;;;;;;6197891;28;20504;-69
2022/03/09 03:15:46;;;;;;;3.45;2.15;;;18.90;44.80;;;;;;6197857;28;20097;-69
2022/03/09 03:18:46;;;;;;;3.38;2.40;;;18.90;44.70;;;;;;6197917;28;20100;-69
2022/03/09 03:21:47;;;;;;;2.63;1.83;;;18.90;44.80;;;;;;6197459;28;20041;-69
2022/03/09 03:24:48;;;;;;;3.05;2.00;;;18.90;44.80;;;;;;6197187;28;20092;-69
2022/03/09 03:27:48;;;;;;;4.00;2.25;;;18.90;44.70;;;;;;6197379;28;20416;-69
2022/03/09 03:30:49;;;;;;;3.80;2.47;;;18.90;44.70;;;;;;6197210;28;20025;-69
2022/03/09 03:33:49;;;;;;;4.63;2.53;;;18.90;44.80;;;;;;6197292;28;20030;-69
2022/03/09 03:36:50;;;;;;;3.85;2.55;;;18.90;44.90;;;;;;6197826;28;20022;-69
2022/03/09 03:39:50;;;;;;;3.60;2.63;;;18.90;44.80;;;;;;6197204;28;20030;-69
2022/03/09 03:42:51;;;;;;;3.55;2.50;;;18.90;44.80;;;;;;6196494;28;20029;-69
2022/03/09 03:45:51;;;;;;;3.60;2.10;;;18.90;44.80;;;;;;6196928;28;20105;-69
2022/03/09 03:48:52;;;;;;;4.70;2.58;;;18.90;44.70;;;;;;6197013;28;20049;-69
2022/03/09 03:51:52;;;;;;;3.45;2.30;;;18.90;44.80;;;;;;6196612;28;20092;-69
2022/03/09 03:54:53;;;;;;;3.60;2.50;;;18.90;44.70;;;;;;6197111;28;20444;-69
2022/03/09 03:57:53;;;;;;;5.00;2.38;;;18.90;44.70;;;;;;6197046;28;20042;-69
2022/03/09 04:00:54;;;;;;;3.83;2.65;;;18.90;44.80;;;;;;6197160;28;20031;-69
2022/03/09 04:03:54;;;;;;;4.72;2.40;;;18.90;44.80;;;;;;6196490;28;20540;-69
2022/03/09 04:06:55;;;;;;;4.18;2.75;;;18.90;44.80;;;;;;6197242;28;20497;-69
2022/03/09 04:09:55;;;;;;;5.13;2.90;;;18.90;44.90;;;;;;6196529;28;20038;-69
2022/03/09 04:13:00;;;;;;;4.55;2.58;;;18.90;44.80;;;;;;6196391;28;20038;-69
2022/03/09 04:16:00;;;;;;;4.25;2.67;;;18.90;44.90;;;;;;6196327;28;20121;-69
2022/03/09 04:19:01;;;;;;;3.90;2.78;;;18.90;44.90;;;;;;6196510;28;20030;-69
2022/03/09 04:22:02;;;;;;;5.13;2.92;;;18.90;44.80;;;;;;6196264;28;20049;-69
2022/03/09 04:25:04;;;;;;;5.07;2.95;;;18.90;44.80;;;;;;6196059;28;20054;-69
2022/03/09 04:28:04;;;;;;;4.68;3.05;;;18.90;44.90;;;;;;6195893;28;20386;-69
2022/03/09 04:31:05;;;;;;;4.93;3.00;;;18.90;44.90;;;;;;6195940;28;20042;-69
2022/03/09 04:34:06;;;;;;;4.78;2.83;;;18.90;44.90;;;;;;6195972;28;20485;-69
2022/03/09 04:37:06;;;;;;;5.93;2.90;;;18.90;44.90;;;;;;6196330;28;20085;-68
2022/03/09 04:40:07;;;;;;;6.43;3.13;;;18.90;44.80;;;;;;6195916;28;20034;-68
2022/03/09 04:43:08;;;;;;;6.70;3.50;;;18.90;44.80;;;;;;6195644;28;20635;-68
2022/03/09 04:46:08;;;;;;;5.95;3.20;;;18.90;44.80;;;;;;6195468;28;20026;-68
2022/03/09 04:49:09;;;;;;;7.00;3.33;;;18.90;44.80;;;;;;6195965;28;20026;-68
2022/03/09 04:52:09;;;;;;;6.07;3.45;;;18.90;44.80;;;;;;6195017;28;20081;-68
2022/03/09 04:55:10;;;;;;;8.80;3.70;;;18.90;44.70;;;;;;6194546;28;20038;-68
2022/03/09 04:58:10;;;;;;;6.28;3.63;;;18.90;44.70;;;;;;6195775;28;20058;-68
2022/03/09 05:01:11;;;;;;;7.55;3.47;;;19.00;44.80;;;;;;6195705;28;20037;-68
2022/03/09 05:04:11;;;;;;;5.80;3.25;;;19.00;44.80;;;;;;6195470;28;20030;-68
2022/03/09 05:07:12;;;;;;;5.50;3.22;;;19.00;44.80;;;;;;6195377;28;20018;-68
2022/03/09 05:10:12;;;;;;;6.95;3.60;;;19.00;44.90;;;;;;6195177;28;20513;-68
2022/03/09 05:13:14;;;;;;;8.35;3.83;;;19.00;44.90;;;;;;6195154;28;20026;-68
2022/03/09 05:16:14;;;;;;;10.07;3.80;;;18.90;44.80;;;;;;6194997;28;20466;-68
2022/03/09 05:19:15;;;;;;;6.70;3.35;;;18.90;44.90;;;;;;6194932;28;20112;-68
2022/03/09 05:22:15;;;;;;;7.15;4.18;;;19.00;44.90;;;;;;6195175;28;20470;-68
2022/03/09 05:25:17;;;;;;;6.90;3.60;;;19.00;45.00;;;;;;6194585;28;20061;-68
2022/03/09 05:28:17;;;;;;;6.30;3.60;;;19.00;45.00;;;;;;6194807;28;20019;-68
2022/03/09 05:31:18;;;;;;;9.00;4.00;;;18.90;45.00;;;;;;6195048;28;20038;-68
2022/03/09 05:34:18;;;;;;;8.13;4.10;;;19.00;45.00;;;;;;6194675;28;20029;-68
2022/03/09 05:37:19;;;;;;;8.45;4.15;;;19.00;45.10;;;;;;6194948;28;20026;-68
2022/03/09 05:40:20;;;;;;;5.88;3.40;;;18.90;44.90;;;;;;6194230;28;20034;-68
2022/03/09 05:43:20;;;;;;;7.80;4.05;;;18.90;44.90;;;;;;6194437;28;20034;-68
2022/03/09 05:46:21;;;;;;;6.70;3.70;;;19.00;45.00;;;;;;6194944;28;20102;-68
2022/03/09 05:49:22;;;;;;;9.32;4.38;;;19.00;45.00;;;;;;6194748;28;20627;-68
2022/03/09 05:52:22;;;;;;;7.32;3.90;;;19.00;45.00;;;;;;6194391;28;20152;-68
2022/03/09 05:55:23;;;;;;;7.28;3.90;;;19.00;45.00;;;;;;6194491;28;20034;-68
2022/03/09 05:58:23;;;;;;;10.45;4.57;;;19.00;45.00;;;;;;6194521;28;20029;-69
2022/03/09 06:01:24;;;;;;;7.80;3.65;;;19.00;45.00;;;;;;6190991;28;20554;-69
2022/03/09 06:04:24;;;;;;;6.97;3.65;;;19.00;45.00;;;;;;6170390;28;20039;-69
2022/03/09 06:07:25;;;;;;;9.00;4.38;;;18.90;44.90;;;;;;6174892;28;20030;-69
2022/03/09 06:10:26;;;;;;;8.95;4.18;;;19.00;45.00;;;;;;6175053;28;20500;-69
2022/03/09 06:13:26;;;;;;;7.28;4.07;;;19.00;45.00;;;;;;6174912;28;20082;-69
2022/03/09 06:16:27;;;;;;;7.78;3.95;;;19.00;45.00;;;;;;6175137;28;20314;-68
2022/03/09 06:19:27;;;;;;;6.95;3.75;;;19.00;45.00;;;;;;6174828;28;20105;-69
2022/03/09 06:22:28;;;;;;;6.57;3.72;;;19.00;44.90;;;;;;6175016;28;20033;-69
2022/03/09 06:25:28;;;;;;;6.22;3.55;;;19.00;44.90;;;;;;6183924;28;20062;-68
2022/03/09 06:28:29;;;;;;;7.80;4.03;;;19.00;44.90;;;;;;6198719;28;20133;-69
2022/03/09 06:31:29;;;;;;;6.72;3.90;;;19.00;44.90;;;;;;6198427;28;20117;-69
2022/03/09 06:34:30;;;;;;;8.55;3.85;;;19.00;44.90;;;;;;6198705;28;20031;-68
2022/03/09 06:37:31;;;;;;;8.32;3.60;;;19.00;44.90;;;;;;6198732;28;20030;-69
2022/03/09 06:40:31;;;;;;;8.88;4.15;;;19.00;44.90;;;;;;6198903;28;20413;-69
2022/03/09 06:43:32;;;;;;;6.85;3.78;;;19.00;44.90;;;;;;6198596;28;20033;-69
2022/03/09 06:46:32;;;;;;;6.35;3.35;;;19.00;44.90;;;;;;6198775;28;20033;-68
2022/03/09 06:49:33;;;;;;;6.90;3.90;;;19.00;45.00;;;;;;6198885;28;20496;-69
2022/03/09 06:52:34;;;;;;;7.30;3.83;;;19.00;45.00;;;;;;6198291;28;20113;-68
2022/03/09 06:55:35;;;;;;;6.75;3.72;;;19.00;45.00;;;;;;6199070;28;20477;-69
2022/03/09 06:58:35;;;;;;;7.78;3.90;;;19.00;45.00;;;;;;6198367;28;20035;-69
2022/03/09 07:01:36;;;;;;;9.38;3.78;;;19.00;44.90;;;;;;6198567;28;20045;-69
2022/03/09 07:04:36;;;;;;;7.38;3.60;;;19.00;44.90;;;;;;6212818;28;20040;-69
2022/03/09 07:07:38;;;;;;;6.32;3.10;;;19.00;44.90;;;;;;6201831;28;20022;-69
2022/03/09 07:10:38;;;;;;;6.82;3.60;;;19.00;44.90;;;;;;6224507;28;20034;-68
2022/03/09 07:13:40;;;;;;;7.35;3.67;;;19.00;44.80;;;;;;6224300;28;20101;-68
2022/03/09 07:16:41;;;;;;;10.52;3.90;;;19.00;44.80;;;;;;6223503;28;20026;-68
2022/03/09 07:19:42;;;;;;;6.55;3.95;;;19.00;44.80;;;;;;6224249;28;20139;-69
2022/03/09 07:22:44;;;;;;;6.20;3.65;;;19.00;44.80;;;;;;6224003;28;20022;-69
2022/03/09 07:25:45;;;;;;;7.97;4.10;;;19.00;44.90;;;;;;6185978;28;20042;-69
2022/03/09 07:28:46;;;;;;;6.05;3.40;;;19.00;44.80;;;;;;6207689;28;20026;-69
2022/03/09 07:31:46;;;;;;;6.70;3.45;;;19.00;44.80;;;;;;6206247;28;20042;-68
2022/03/09 07:34:47;;;;;;;7.32;4.07;;;19.00;44.90;;;;;;6197784;28;20605;-68
2022/03/09 07:37:50;;;;;;;6.75;3.80;;;19.00;44.90;;;;;;6198180;28;20041;-69
2022/03/09 07:40:50;;;;;;;6.72;4.25;;;19.00;44.90;;;;;;6198908;28;20053;-68
2022/03/09 07:43:51;;;;;;;6.15;3.78;;;19.00;45.00;;;;;;6194974;28;20023;-69
2022/03/09 07:46:52;;;;;;;7.45;3.70;;;19.00;45.00;;;;;;6197875;28;20081;-69
2022/03/09 07:49:52;;;;;;;7.45;3.80;;;19.00;45.00;;;;;;6198179;28;20031;-69
2022/03/09 07:52:53;;;;;;;6.85;3.58;;;19.00;45.00;;;;;;6197855;28;20046;-68
2022/03/09 07:55:53;;;;;;;7.07;3.85;;;19.00;45.10;;;;;;6197888;28;20064;-68
2022/03/09 07:58:54;;;;;;;12.10;3.88;;;19.00;45.10;;;;;;6179682;28;20114;-69
2022/03/09 08:01:55;;;;;;;7.43;3.80;;;19.00;45.20;;;;;;6181023;28;20027;-69
2022/03/09 08:04:56;;;;;;;5.32;3.05;;;19.00;45.10;;;;;;6173026;28;20031;-69
2022/03/09 08:07:57;;;;;;;7.28;3.88;;;19.00;45.10;;;;;;6173494;28;20073;-69
2022/03/09 08:10:57;;;;;;;6.93;3.20;;;19.00;45.10;;;;;;6171829;28;20043;-69
2022/03/09 08:13:58;;;;;;;5.68;3.75;;;19.00;45.20;;;;;;6172903;28;20027;-69
2022/03/09 08:16:58;;;;;;;5.53;3.50;;;19.00;45.20;;;;;;6172877;28;20027;-69
2022/03/09 08:19:59;;;;;;;7.13;3.78;;;19.00;45.20;;;;;;6187412;28;20030;-68
2022/03/09 08:23:00;;;;;;;7.25;3.72;;;19.00;45.20;;;;;;6196614;28;20019;-69
2022/03/09 08:26:01;;;;;;;7.55;3.50;;;19.00;45.20;;;;;;6196279;28;20081;-69
2022/03/09 08:29:03;;;;;;;6.43;3.65;;;19.00;45.30;;;;;;6196575;28;20436;-69
2022/03/09 08:32:04;;;;;;;6.13;3.28;;;19.00;45.20;;;;;;6203227;28;20046;-69
2022/03/09 08:35:05;;;;;;;7.50;4.18;;;19.00;45.20;;;;;;6196308;28;20076;-69
2022/03/09 08:38:06;;;;;;;4.47;3.15;;;19.00;45.30;;;;;;6197133;28;20054;-68
2022/03/09 08:41:07;;;;;;;6.25;3.38;;;19.00;45.30;;;;;;6196796;28;20029;-69
2022/03/09 08:44:07;;;;;;;5.35;3.22;;;19.00;45.30;;;;;;6196354;28;20417;-69
2022/03/09 08:47:09;;;;;;;7.03;3.92;;;19.00;45.30;;;;;;6196855;28;20022;-69
2022/03/09 08:50:10;;;;;;;6.68;3.55;;;19.00;45.30;;;;;;6196866;28;20027;-68
2022/03/09 08:53:11;;;;;;;9.50;3.60;;;19.00;45.30;;;;;;6195964;28;20022;-69
2022/03/09 08:56:11;;;;;;;17.55;3.83;;;19.00;45.40;;;;;;6193646;28;20030;-66
2022/03/09 08:59:12;;;;;;;5.22;3.35;;;19.10;45.80;;;;;;6196449;28;20030;-70
2022/03/09 09:02:12;;;;;;;7.07;3.60;;;19.10;45.50;;;;;;6196803;28;20037;-70
2022/03/09 09:05:13;;;;;;;8.50;4.05;;;19.10;45.30;;;;;;6195237;28;20026;-70
2022/03/09 09:08:13;;;;;;;5.32;3.38;;;19.10;45.40;;;;;;6196807;28;20030;-70
2022/03/09 09:11:14;;;;;;;7.18;3.40;;;19.10;45.40;;;;;;6204938;28;20033;-70
2022/03/09 09:14:15;;;;;;;4.40;2.92;;;19.00;45.40;;;;;;6203814;28;20070;-69
2022/03/09 09:17:15;;;;;;;9.50;3.40;;;19.00;45.40;;;;;;6189756;28;20053;-70
2022/03/09 09:20:16;;;;;;;11.40;3.05;;;19.10;45.60;;;;;;6202355;28;20053;-70
2022/03/09 09:23:17;;;;;;;7.25;3.35;;;19.10;45.50;;;;;;6181590;28;20038;-70
2022/03/09 09:26:18;;;;;;;5.30;3.00;;;19.10;45.40;;;;;;6203125;28;20050;-70
2022/03/09 09:29:19;;;;;;;6.55;3.33;;;19.10;45.30;;;;;;6196200;28;20382;-70
2022/03/09 09:32:19;;;;;;;4.88;3.33;;;19.10;45.30;;;;;;6197626;28;20484;-70
2022/03/09 09:35:20;;;;;;;7.55;3.33;;;19.10;45.20;;;;;;6199241;28;20062;-70
2022/03/09 09:38:21;;;;;;;5.22;3.08;;;19.10;45.20;;;;;;6197072;28;20034;-70
2022/03/09 09:41:25;;;;;;;5.15;3.08;;;19.20;45.20;;;;;;6195574;28;20580;-70
2022/03/09 09:44:26;;;;;;;5.13;3.25;;;19.20;45.20;;;;;;6196435;28;20049;-70
2022/03/09 09:47:28;;;;;;;6.95;2.75;;;19.20;45.10;;;;;;6196339;28;20070;-70
2022/03/09 09:50:29;;;;;;;5.78;3.15;;;19.20;45.10;;;;;;6196561;28;20179;-70
2022/03/09 09:53:33;;;;;;;4.82;2.83;;;19.20;45.00;;;;;;6196129;28;20092;-70
2022/03/09 09:56:41;;;;;;;6.00;3.22;;;19.20;45.00;;;;;;6196745;28;20034;-70
2022/03/09 09:59:43;;;;;;;4.05;2.50;;;19.20;45.00;;;;;;6196814;28;20031;-70
2022/03/09 10:02:43;;;;;;;4.88;2.72;;;19.20;45.00;;;;;;6196850;28;20030;-70
2022/03/09 10:05:44;;;;;;;5.00;2.88;;;19.20;45.00;;;;;;6196629;28;20028;-70
2022/03/09 10:09:06;;;;;;;4.30;2.75;;;19.20;45.00;;;;;;6196495;28;20026;-70
2022/03/09 10:12:09;;;;;;;5.13;3.08;;;19.20;45.00;;;;;;6195332;28;20034;-70
2022/03/09 10:15:15;;;;;;;4.93;3.05;;;19.20;45.00;;;;;;6196601;28;20113;-70
2022/03/09 10:18:20;;;;;;;5.50;2.97;;;19.20;45.00;;;;;;6200284;28;20069;-70
2022/03/09 10:21:28;;;;;;;6.88;3.05;;;19.20;45.00;;;;;;6196660;28;20061;-70
2022/03/09 10:24:35;;;;;;;4.70;2.58;;;19.20;45.10;;;;;;6195955;28;20037;-70
2022/03/09 10:27:41;;;;;;;4.40;2.95;;;19.20;45.10;;;;;;6196453;28;20401;-70
2022/03/09 10:30:43;;;;;;;4.57;2.92;;;19.20;45.20;;;;;;6196216;28;20018;-70
2022/03/09 10:33:43;;;;;;;4.25;2.42;;;19.20;45.20;;;;;;6196425;28;20038;-70
2022/03/09 10:36:54;;;;;;;4.68;2.80;;;19.20;45.20;;;;;;6196386;28;20063;-70
2022/03/09 10:40:11;;;;;;;4.22;2.85;;;19.20;45.30;;;;;;6196241;28;20541;-70
2022/03/09 10:43:17;;;;;;;4.50;2.90;;;19.10;45.30;;;;;;6196241;28;20402;-70
2022/03/09 10:46:18;;;;;;;4.75;2.63;;;19.10;45.30;;;;;;6195940;28;20038;-70
2022/03/09 10:49:23;;;;;;;8.07;2.60;;;19.10;45.30;;;;;;6198511;28;20405;-70
2022/03/09 10:52:41;;;;;;;3.78;2.70;;;19.10;45.40;;;;;;6198347;28;20046;-70
2022/03/09 10:55:42;;;;;;;5.82;3.10;;;19.10;45.40;;;;;;6200354;28;20572;-70
2022/03/09 10:58:42;;;;;;;4.25;2.70;;;19.10;45.50;;;;;;6200268;28;20030;-70
2022/03/09 11:01:51;;;;;;;4.78;2.65;;;19.10;45.50;;;;;;6199994;28;20452;-70
2022/03/09 11:05:14;;;;;;;4.30;2.70;;;19.10;45.50;;;;;;6200295;28;20030;-70
2022/03/09 11:08:15;;;;;;;3.53;2.45;;;19.10;45.50;;;;;;6200206;28;20033;-70
2022/03/09 11:11:19;;;;;;;4.05;2.30;;;19.10;45.60;;;;;;6199544;28;20099;-70
2022/03/09 11:14:21;;;;;;;4.18;2.38;;;19.10;45.60;;;;;;6200074;28;20065;-70
2022/03/09 11:17:23;;;;;;;3.88;2.35;;;19.10;45.50;;;;;;6199931;28;20030;-70
2022/03/09 11:20:24;;;;;;;3.83;2.40;;;19.10;45.60;;;;;;6199944;28;20026;-70
2022/03/09 11:23:25;;;;;;;3.38;2.45;;;19.10;45.60;;;;;;6199553;28;20390;-70
2022/03/09 11:26:28;;;;;;;3.20;2.15;;;19.10;45.60;;;;;;6199133;28;20438;-70
2022/03/09 11:29:35;;;;;;;4.35;2.45;;;19.10;45.60;;;;;;6199478;28;20026;-70
2022/03/09 11:32:36;;;;;;;2.47;1.80;;;19.10;45.70;;;;;;6199367;28;20026;-70
2022/03/09 11:35:39;;;;;;;4.20;2.47;;;19.10;45.60;;;;;;6199503;28;20130;-70
2022/03/09 11:38:40;;;;;;;3.58;2.15;;;19.10;45.50;;;;;;6198886;28;20018;-70
2022/03/09 11:41:41;;;;;;;2.90;2.08;;;19.10;45.60;;;;;;6199362;28;20077;-70
2022/03/09 11:44:43;;;;;;;3.95;2.60;;;19.10;45.60;;;;;;6199091;28;20533;-70
2022/03/09 11:48:07;;;;;;;4.25;2.20;;;19.10;45.60;;;;;;6199077;28;20370;-70
2022/03/09 11:51:10;;;;;;;3.30;2.20;;;19.10;45.60;;;;;;6198684;28;20038;-70
2022/03/09 11:54:10;;;;;;;4.40;2.42;;;19.10;45.60;;;;;;6199421;28;20358;-70
2022/03/09 11:57:13;;;;;;;3.65;2.33;;;19.10;45.70;;;;;;6199223;28;20022;-70
2022/03/09 12:00:16;;;;;;;3.58;2.38;;;19.10;45.70;;;;;;6198906;28;20505;-70
2022/03/09 12:03:38;;;;;;;3.38;2.30;;;19.10;45.70;;;;;;6197289;28;20038;-70
2022/03/09 12:06:43;;;;;;;3.75;2.45;;;19.10;45.70;;;;;;6198776;28;20478;-70
2022/03/09 12:09:57;;;;;;;2.58;2.03;;;19.10;45.70;;;;;;6198843;28;20050;-70
2022/03/09 12:13:14;;;;;;;2.78;1.73;;;19.10;45.70;;;;;;6201281;28;20512;-70
2022/03/09 12:16:15;;;;;;;3.00;1.92;;;19.10;45.70;;;;;;6198485;28;20030;-70
2022/03/09 12:19:16;;;;;;;3.03;2.28;;;19.10;45.70;;;;;;6185502;28;20777;-70
2022/03/09 12:22:17;;;;;;;3.25;1.95;;;19.10;45.80;;;;;;6198438;28;20022;-70
2022/03/09 12:25:49;;;;;;;3.47;2.05;;;19.10;45.70;;;;;;6196549;28;20115;-70
2022/03/09 12:28:49;;;;;;;4.75;2.03;;;19.10;45.50;;;;;;6201926;28;20108;-72
2022/03/09 12:32:02;;;;;;;9.38;2.13;;;19.10;45.70;;;;;;6198312;28;20030;-70
2022/03/09 12:35:05;;;;;;;4.53;2.25;;;19.20;45.60;;;;;;6198832;28;20026;-70
2022/03/09 12:38:06;;;;;;;4.22;2.13;;;19.10;45.60;;;;;;6198638;28;20030;-70
2022/03/09 12:41:25;;;;;;;3.70;2.10;;;19.20;45.70;;;;;;6201972;28;20081;-70
2022/03/09 12:44:29;;;;;;;4.97;1.90;;;19.10;45.70;;;;;;6176292;28;20033;-69
2022/03/09 12:47:35;;;;;;;7.68;1.92;;;19.10;45.70;;;;;;6190771;28;20500;-70
2022/03/09 12:50:36;;;;;;;6.47;1.45;;;19.10;45.80;;;;;;6197024;28;20030;-69
2022/03/09 12:53:37;;;;;;;3.63;1.75;;;19.10;45.80;;;;;;6196928;28;20019;-70
2022/03/09 12:56:38;;;;;;;4.60;1.85;;;19.10;45.80;;;;;;6197258;28;20676;-69
2022/03/09 12:59:58;;;;;;;2.63;1.70;;;19.10;45.80;;;;;;6196377;28;20084;-70
2022/03/09 13:03:00;;;;;;;4.13;1.70;;;19.10;45.80;;;;;;6196155;28;20494;-70
2022/03/09 13:06:26;;;;;;;3.08;1.63;;;19.10;45.80;;;;;;6195891;28;20026;-70
2022/03/09 13:09:27;;;;;;;2.47;1.70;;;19.10;45.80;;;;;;6200495;28;20498;-70
2022/03/09 13:12:27;;;;;;;2.55;1.65;;;19.10;45.80;;;;;;6188726;28;20052;-70
2022/03/09 13:15:39;;;;;;;3.33;1.52;;;19.10;45.90;;;;;;6171399;28;20033;-71
2022/03/09 13:18:40;;;;;;;2.35;1.50;;;19.10;45.80;;;;;;6205977;28;20022;-69
2022/03/09 13:21:40;;;;;;;2.20;1.73;;;19.10;45.90;;;;;;6219826;28;20022;-70
2022/03/09 13:24:41;;;;;;;2.78;1.88;;;19.10;45.90;;;;;;6219376;28;20048;-70
2022/03/09 13:27:43;;;;;;;2.17;1.55;;;19.10;45.90;;;;;;6219725;28;20041;-70
2022/03/09 13:30:52;;;;;;;2.75;1.80;;;19.10;45.90;;;;;;6219851;28;20053;-70
2022/03/09 13:34:14;;;;;;;3.53;2.13;;;19.10;45.90;;;;;;6219546;28;20030;-69
2022/03/09 13:37:20;;;;;;;3.17;1.80;;;19.10;46.00;;;;;;6220344;28;20040;-70
2022/03/09 13:40:21;;;;;;;2.60;1.48;;;19.10;46.00;;;;;;6219764;28;20034;-70
2022/03/09 13:43:26;;;;;;;2.90;1.70;;;19.10;46.10;;;;;;6200988;28;20033;-69
2022/03/09 13:46:28;;;;;;;3.40;1.80;;;19.10;46.10;;;;;;6195172;28;20101;-70
2022/03/09 13:49:41;;;;;;;4.60;2.03;;;19.10;46.00;;;;;;6193692;28;20202;-69
2022/03/09 13:52:42;;;;;;;3.33;2.05;;;19.10;46.80;;;;;;6195253;28;20046;-69
2022/03/09 13:55:52;;;;;;;2.38;1.60;;;19.10;46.10;;;;;;6195245;28;20029;-70
2022/03/09 13:58:53;;;;;;;3.42;1.83;;;19.10;46.10;;;;;;6195047;28;20035;-70
2022/03/09 14:01:54;;;;;;;3.40;1.90;;;19.10;46.10;;;;;;6195198;28;20040;-70
2022/03/09 14:04:54;;;;;;;2.25;1.77;;;19.10;46.10;;;;;;6195464;28;20346;-69
2022/03/09 14:07:55;;;;;;;3.05;1.90;;;19.10;46.80;;;;;;6194794;28;20085;-70
2022/03/09 14:11:14;;;;;;;4.07;2.03;;;19.10;46.10;;;;;;6193982;28;20489;-70
2022/03/09 14:14:17;;;;;;;3.75;2.00;;;19.10;46.10;;;;;;6173016;28;20054;-69
2022/03/09 14:17:18;;;;;;;3.10;1.92;;;19.10;46.20;;;;;;6183667;28;20077;-69
2022/03/09 14:20:18;;;;;;;2.92;1.70;;;19.10;46.10;;;;;;6219142;28;20038;-70
2022/03/09 14:23:19;;;;;;;3.78;2.20;;;19.10;46.10;;;;;;6204267;28;20110;-69
2022/03/09 14:26:20;;;;;;;3.28;1.85;;;19.10;46.60;;;;;;6194934;28;20085;-70
2022/03/09 14:29:23;;;;;;;5.93;1.85;;;19.20;46.50;;;;;;6198922;28;20033;-70
2022/03/09 14:32:23;;;;;;;6.07;1.90;;;19.30;46.10;;;;;;6198999;28;20073;-71
2022/03/09 14:35:24;;;;;;;2.92;1.80;;;19.30;46.10;;;;;;6198683;28;20101;-70
2022/03/09 14:38:25;;;;;;;38.17;4.68;;;19.40;46.50;;;;;;6199099;28;20022;-73
2022/03/09 14:41:26;;;;;;;82.80;8.90;;;19.40;46.70;;;;;;6198979;28;20555;-71
2022/03/09 14:44:27;;;;;;;50.35;6.03;;;19.40;46.70;;;;;;6198994;28;20028;-70
2022/03/09 14:47:27;;;;;;;29.13;4.28;;;19.40;46.40;;;;;;6198700;28;20031;-70
2022/03/09 14:50:28;;;;;;;15.82;3.10;;;19.40;46.60;;;;;;6199078;28;20145;-71
2022/03/09 14:53:30;;;;;;;9.98;3.33;;;19.50;46.90;;;;;;6198624;28;20034;-71
2022/03/09 14:56:32;;;;;;;9.38;2.60;;;19.40;46.30;;;;;;6202296;28;20027;-70
2022/03/09 14:59:33;;;;;;;7.38;2.95;;;19.40;46.10;;;;;;6181763;28;20045;-70
2022/03/09 15:02:35;;;;;;;11.20;2.97;;;19.30;46.30;;;;;;6174988;28;20038;-70
2022/03/09 15:05:35;;;;;;;10.85;2.95;;;19.30;46.30;;;;;;6174981;28;20042;-71
2022/03/09 15:08:37;;;;;;;6.78;2.80;;;19.30;46.50;;;;;;6186616;28;20057;-70
2022/03/09 15:11:38;;;;;;;10.32;2.80;;;19.30;46.50;;;;;;6182323;28;20342;-70
2022/03/09 15:14:38;;;;;;;8.30;2.08;;;19.30;46.50;;;;;;6176397;28;20030;-70
2022/03/09 15:17:39;;;;;;;8.88;2.45;;;19.30;46.60;;;;;;6198109;28;20117;-70
2022/03/09 15:20:40;;;;;;;6.00;2.42;;;19.30;46.70;;;;;;6184475;28;20025;-71
2022/03/09 15:23:40;;;;;;;11.20;2.25;;;19.30;46.70;;;;;;6184334;28;20033;-70
2022/03/09 15:26:41;;;;;;;7.45;1.92;;;19.20;46.50;;;;;;6198082;28;20096;-70
2022/03/09 15:29:42;;;;;;;5.32;2.05;;;19.20;46.50;;;;;;6197837;28;20132;-70
2022/03/09 15:32:42;;;;;;;6.30;2.40;;;19.20;46.50;;;;;;6198440;28;20038;-70
2022/03/09 15:35:44;;;;;;;7.88;1.83;;;19.20;46.60;;;;;;6197800;28;20381;-70
2022/03/09 15:38:45;;;;;;;8.23;2.10;;;19.20;46.60;;;;;;6196561;28;20061;-70
2022/03/09 15:41:45;;;;;;;7.07;2.13;;;19.20;46.60;;;;;;6197830;28;20018;-70
2022/03/09 15:44:46;;;;;;;8.27;2.25;;;19.20;46.60;;;;;;6197495;28;20033;-70
2022/03/09 15:47:46;;;;;;;4.53;1.77;;;19.20;46.60;;;;;;6197452;28;20416;-70
2022/03/09 15:50:48;;;;;;;4.03;1.85;;;19.20;46.70;;;;;;6197641;28;20061;-70